Airport Mail Center, CA

11:14 PM PST on November 22, 2014 (GMT -0800)
Burlingame | Change Station
CLOSE
Current Station
Personal Weather Station
Location: Burlingame, CA
Elevation: 400 ft
Nearby Weather Stations

Elev 400 ft 37.58 °N, 122.39 °W | Updated 4 minutes ago

Clear
Clear
53.6 °F
Feels Like 53.6 °F
N
0.0
Wind Variable Wind from West
Gusts 0.0 mph

Today
High -- | Low -- °F
--% Chance of Precip.
Yesterday
High -- | Low -- °F
Precip. -- in
6:56 AM 4:54 PM
New Moon, 1% visible
Pressure 30.25 in
Visibility 10.0 miles
Clouds Clear
Dew Point 46 °F
Humidity 74%
Rainfall 0.47 in
Snow Depth Not available.
UV 0 out of 12
Pollen .40 out of 12
Air Quality Not available.
Flu Activity Not available.
METAR KSFO 230656Z 28006KT 10SM CLR 14/10 A3025 RMK AO2 SLP244 T01390100

More Conditions Fewer Conditions

Pressure 30.25 in
Visibility 10.0 miles
Clouds Clear
Dew Point 46 °F
Humidity 74%
Rainfall 0.47 in
Snow Depth Not available.
UV 0 out of 12
Pollen .40 out of 12
Air Quality Not available.
Flu Activity Not available.
METAR KSFO 230656Z 28006KT 10SM CLR 14/10 A3025 RMK AO2 SLP244 T01390100

More Conditions Fewer Conditions

10-Day Weather Forecast

Almanac

Astronomy

Nov. 22, 2014 Rise Set
Actual Time
Civil Twilight
Nautical Twilight
Astronomical Twilight
Moon
Length of Visible Light
Length of Day
Tomorrow will be .
, % of the Moon is Illuminated

Today's Extremes

State Highs State Lows

Community

WunderPhotos

Upload Photos

1,773,024 photos uploaded!

WunderBlogs® & News

Nearby

Air Quality

  Air Quality AQ Index Pollutant
Not available.

Snow Depth

Station Depth Elevation

Earthquake Activity

City Distance Mag. Time & Date
Minimum magnitude displayed is 2.5.

Coastal Water Temperatures

Place Temperature

Nearby Weather Stations